»·PEaware :: N516TT KBOI-KOTH

N516TT :: KBOI-KOTH

FLIGHT INFORMATION

Flight Status: Arrived
Operator: Privately registered:
United States
More flights under this callsign
Pilot: Gareth S. (19921)
Aircraft: SOCATA TBM-900
(TBM9)
More flights by this aircraft type
Origin: KBOI Boise Air Terminal/Gowen
United States
Destination: KOTH North Bend Mun
United States
More flights between these airports :: More routes between these airports
Route: BOI3 BOI V330 ILR V269 EUG V121 OTH
File this flight plan on PilotEdge
Remarks:
Altitude:
(Current/Filed)
24,000ft
Speed:
(Current/Filed)
230kts
Departed: 10-Apr-20 01:34 PM
Arrived: 10-Apr-20 03:10 PM
Distance/Time
Traveled:
349nm/1:35
Distance/Time
To Go:
Arrived

Flight Plot

Page will automatically refresh every two minutes.


Map Options




Map Legend


Flown Route
Filed Route
Departure Airport
Arrival Airport
Navaid (VOR, NDB)
Fix

Horizontal Profiles

Position Reports

Time Latitude Longitude Heading Altitude Ground
Speed
10-Apr-20 12:56 43.562237 -116.206291 270 2846ft 0kts
10-Apr-20 12:57 43.562237 -116.206291 270 2846ft 0kts
10-Apr-20 12:58 43.562237 -116.206291 270 2846ft 0kts
10-Apr-20 12:59 43.562237 -116.206291 270 2846ft 0kts
10-Apr-20 13:00 43.562237 -116.206291 270 2846ft 0kts
10-Apr-20 13:01 43.562237 -116.206291 270 2846ft 0kts
10-Apr-20 13:02 43.562237 -116.206291 270 2846ft 0kts
10-Apr-20 13:03 43.562237 -116.206291 270 2846ft 0kts
10-Apr-20 13:04 43.562237 -116.206291 270 2846ft 0kts
10-Apr-20 13:05 43.562237 -116.206291 270 2846ft 0kts
10-Apr-20 13:06 43.562237 -116.206291 270 2846ft 0kts
10-Apr-20 13:07 43.562237 -116.206291 270 2846ft 0kts
10-Apr-20 13:08 43.562237 -116.206291 270 2846ft 0kts
10-Apr-20 13:09 43.562237 -116.206291 270 2846ft 0kts
10-Apr-20 13:10 43.562237 -116.206291 270 2846ft 0kts
10-Apr-20 13:11 43.562237 -116.206291 270 2846ft 0kts
10-Apr-20 13:12 43.562237 -116.206291 270 2846ft 0kts
10-Apr-20 13:13 43.562237 -116.206291 270 2846ft 0kts
10-Apr-20 13:14 43.562237 -116.206291 270 2846ft 0kts
10-Apr-20 13:15 43.562237 -116.206291 270 2846ft 0kts
10-Apr-20 13:16 43.562237 -116.206291 270 2846ft 0kts
10-Apr-20 13:17 43.562237 -116.206291 270 2846ft 0kts
10-Apr-20 13:18 43.562237 -116.206291 270 2846ft 0kts
10-Apr-20 13:19 43.562237 -116.206291 270 2846ft 0kts
10-Apr-20 13:20 43.562237 -116.206291 270 2846ft 0kts
10-Apr-20 13:21 43.562237 -116.206291 270 2846ft 0kts
10-Apr-20 13:22 43.562237 -116.206291 270 2846ft 0kts
10-Apr-20 13:23 43.562237 -116.206291 270 2846ft 0kts
10-Apr-20 13:24 43.562237 -116.206291 270 2846ft 0kts
10-Apr-20 13:25 43.562237 -116.206291 270 2846ft 0kts
10-Apr-20 13:26 43.562237 -116.206291 270 2846ft 0kts
10-Apr-20 13:27 43.562078 -116.206657 130 2846ft 4kts
10-Apr-20 13:28 43.560230 -116.204148 115 2846ft 13kts
10-Apr-20 13:29 43.559327 -116.202457 188 2846ft 0kts
10-Apr-20 13:30 43.559327 -116.202457 188 2846ft 0kts
10-Apr-20 13:31 43.559327 -116.202457 188 2846ft 0kts
10-Apr-20 13:32 43.558677 -116.203148 297 2846ft 14kts
10-Apr-20 13:33 43.570187 -116.238531 290 3792ft 134kts
10-Apr-20 13:34 43.584590 -116.289845 290 5514ft 157kts
10-Apr-20 13:35 43.601031 -116.348514 290 7241ft 159kts
10-Apr-20 13:36 43.616507 -116.403683 290 8883ft 153kts
10-Apr-20 13:37 43.630826 -116.454960 291 10510ft 138kts
10-Apr-20 13:38 43.645017 -116.505715 293 12258ft 148kts
10-Apr-20 13:39 43.647289 -116.556567 243 13850ft 159kts
10-Apr-20 13:40 43.624545 -116.608610 243 15512ft 156kts
10-Apr-20 13:41 43.601716 -116.660576 243 17241ft 170kts
10-Apr-20 13:42 43.575978 -116.720047 243 19088ft 192kts
10-Apr-20 13:43 43.567181 -116.790462 275 20918ft 197kts
10-Apr-20 13:44 43.568727 -116.862940 276 22624ft 204kts
10-Apr-20 13:45 43.570382 -116.942298 276 24030ft 221kts
10-Apr-20 13:46 43.572187 -117.035067 275 24028ft 257kts
10-Apr-20 13:47 43.574082 -117.136376 275 24021ft 269kts
10-Apr-20 13:48 43.575944 -117.240172 275 24019ft 273kts
10-Apr-20 13:49 43.577721 -117.344282 275 24018ft 274kts
10-Apr-20 13:50 43.579419 -117.449351 275 24018ft 274kts
10-Apr-20 13:52 43.581021 -117.554919 275 24018ft 274kts
10-Apr-20 13:53 43.582527 -117.659842 274 24017ft 273kts
10-Apr-20 13:54 43.583932 -117.764700 274 24017ft 273kts
10-Apr-20 13:55 43.585225 -117.868372 274 24019ft 273kts
10-Apr-20 13:56 43.586443 -117.972973 274 24043ft 281kts
10-Apr-20 13:57 43.587619 -118.084425 274 24054ft 292kts
10-Apr-20 13:58 43.588698 -118.196686 274 24055ft 295kts
10-Apr-20 13:59 43.589688 -118.310972 274 24055ft 299kts
10-Apr-20 14:00 43.590550 -118.424164 274 24051ft 295kts
10-Apr-20 14:01 43.591305 -118.536559 274 24053ft 291kts
10-Apr-20 14:02 43.591943 -118.648521 274 24054ft 290kts
10-Apr-20 14:03 43.592469 -118.759827 273 24054ft 290kts
10-Apr-20 14:04 43.592888 -118.871903 273 24054ft 290kts
10-Apr-20 14:05 43.600275 -118.980190 295 24069ft 281kts
10-Apr-20 14:06 43.630094 -119.080986 295 24054ft 283kts
10-Apr-20 14:07 43.659510 -119.181592 295 24054ft 283kts
10-Apr-20 14:08 43.688914 -119.282595 295 24054ft 282kts
10-Apr-20 14:09 43.718183 -119.383530 295 24055ft 281kts
10-Apr-20 14:10 43.746844 -119.482770 295 24057ft 281kts
10-Apr-20 14:10 43.770942 -119.566505 295 24058ft 280kts
10-Apr-20 14:12 43.804468 -119.683485 294 24060ft 280kts
10-Apr-20 14:13 43.833110 -119.783854 294 24061ft 279kts
10-Apr-20 14:14 43.861666 -119.884319 294 24062ft 279kts
10-Apr-20 14:14 43.884703 -119.965677 294 24062ft 279kts
10-Apr-20 14:15 43.912982 -120.065915 294 24063ft 278kts
10-Apr-20 14:16 43.941080 -120.165908 294 24067ft 278kts
10-Apr-20 14:17 43.969186 -120.266341 294 24070ft 278kts
10-Apr-20 14:18 43.997196 -120.366833 294 24070ft 279kts
10-Apr-20 14:19 44.024673 -120.465807 294 24070ft 278kts
10-Apr-20 14:20 44.052527 -120.566561 294 24070ft 277kts
10-Apr-20 14:21 44.079985 -120.666305 293 24070ft 277kts
10-Apr-20 14:22 44.107592 -120.766997 293 24075ft 277kts
10-Apr-20 14:23 44.134945 -120.867181 293 24075ft 277kts
10-Apr-20 14:24 44.161356 -120.964342 293 24074ft 276kts
10-Apr-20 14:25 44.189107 -121.066800 293 23406ft 292kts
10-Apr-20 14:26 44.218121 -121.174459 292 22429ft 299kts
10-Apr-20 14:27 44.247462 -121.283801 292 21435ft 301kts
10-Apr-20 14:28 44.265275 -121.397797 282 20440ft 303kts
10-Apr-20 14:29 44.279843 -121.508317 283 19445ft 288kts
10-Apr-20 14:30 44.294132 -121.617581 283 18434ft 284kts
10-Apr-20 14:31 44.308219 -121.726097 282 17434ft 282kts
10-Apr-20 14:32 44.322145 -121.834170 282 16439ft 282kts
10-Apr-20 14:33 44.335852 -121.941435 282 15851ft 270kts
10-Apr-20 14:34 44.348552 -122.041426 283 15878ft 260kts
10-Apr-20 14:35 44.361014 -122.140289 282 15906ft 258kts
10-Apr-20 14:36 44.373403 -122.239373 282 15914ft 258kts
10-Apr-20 14:37 44.361068 -122.338541 253 15659ft 275kts
10-Apr-20 14:38 44.333437 -122.441825 253 14399ft 285kts
10-Apr-20 14:39 44.306763 -122.541109 253 13906ft 261kts
10-Apr-20 14:40 44.282003 -122.633108 253 13917ft 250kts
10-Apr-20 14:41 44.257410 -122.724046 253 13925ft 248kts
10-Apr-20 14:42 44.232749 -122.814891 253 13917ft 248kts
10-Apr-20 14:43 44.208233 -122.904878 253 13917ft 247kts
10-Apr-20 14:44 44.183953 -122.993705 253 13936ft 250kts
10-Apr-20 14:45 44.158821 -123.085286 253 13945ft 254kts
10-Apr-20 14:46 44.133440 -123.177431 253 13943ft 255kts
10-Apr-20 14:47 44.094171 -123.259528 227 13852ft 268kts
10-Apr-20 14:48 44.039107 -123.334184 228 12366ft 280kts
10-Apr-20 14:49 43.984122 -123.408830 227 10906ft 281kts
10-Apr-20 14:50 43.929068 -123.483179 227 9944ft 250kts
10-Apr-20 14:51 43.884111 -123.543902 228 9932ft 210kts
10-Apr-20 14:52 43.843632 -123.598459 228 9930ft 199kts
10-Apr-20 14:53 43.802038 -123.654461 227 9092ft 223kts
10-Apr-20 14:54 43.757711 -123.713803 227 7308ft 217kts
10-Apr-20 14:55 43.715264 -123.770649 226 5473ft 209kts
10-Apr-20 14:56 43.675906 -123.823224 226 4906ft 190kts
10-Apr-20 14:57 43.638001 -123.873770 226 4918ft 190kts
10-Apr-20 14:58 43.600082 -123.924226 226 4937ft 190kts
10-Apr-20 14:59 43.562346 -123.974351 226 4957ft 190kts
10-Apr-20 15:00 43.524320 -124.024869 227 4976ft 190kts
10-Apr-20 15:01 43.489753 -124.070017 226 3820ft 145kts
10-Apr-20 15:02 43.465825 -124.108672 237 2244ft 129kts
10-Apr-20 15:03 43.443959 -124.151511 241 1663ft 123kts
10-Apr-20 15:04 43.425844 -124.187401 240 1103ft 124kts
10-Apr-20 15:05 43.408463 -124.220789 240 1000ft 98kts
10-Apr-20 15:06 43.393844 -124.255360 248 1013ft 97kts
10-Apr-20 15:07 43.399820 -124.277316 337 569ft 75kts
10-Apr-20 15:08 43.414310 -124.261514 47 65ft 72kts
10-Apr-20 15:09 43.419700 -124.247628 137 15ft 8kts
10-Apr-20 15:10 43.418299 -124.246674 211 22ft 8kts
10-Apr-20 15:11 43.417267 -124.246419 148 23ft 0kts
10-Apr-20 15:12 43.417267 -124.246419 148 23ft 0kts
10-Apr-20 15:13 43.417267 -124.246419 148 23ft 0kts
10-Apr-20 15:14 43.417267 -124.246419 148 23ft 0kts
10-Apr-20 15:15 43.417267 -124.246419 148 23ft 0kts
10-Apr-20 15:16 43.417267 -124.246419 148 23ft 0kts
10-Apr-20 15:17 43.417267 -124.246419 148 23ft 0kts

Navigation Log

Ident Type
Flight plan parsing failed, navigation log unavailable